Stockton Metropolitan Airport
KSCK : rendu visible

Aérodrome :











RETROUVEZ-NOUS SUR...

 
LOGIN :

S'inscrire | Disclaimer

   EN    FR    IT 

 









Légende :    VFR   VFR Marginal   IFR   IFR Intensif   IFR Très Intensif
Visi : 
Plafond : 
>= 8 km
>= 3000ft
5 à 8 km
1000 à 3000 ft
1500m à 5 km
500 à 1000 ft
800 à 1500m
200 à 500 ft
< 800m
< 200 ft
Symboles :   Orages  Brouillard  Fortes neiges  Fortes précipitations  Vent > 20 kt






- Altitude de l'aérodrome : 33 ft


KSCK - Stockton Metropolitan

DERNIER METAR :
  • 100755Z AUTO 00000KT 3SM BR CLR 08/07 A3022 RMK AO2 SLP232 T00830072 401670061

METARs EXPIRÉS :
  • 100740Z AUTO 09004KT 3SM BR FEW004 08/07 A3022 RMK AO2 T00830072
  • 100733Z AUTO 08004KT 2 1/2SM BR SCT004 08/08 A3021 RMK AO2 T00830078
  • 100724Z AUTO 08004KT 1 1/4SM R29R/4000VP6000FT BR SCT004 08/08 A3021 RMK AO2 T00830078
  • 100710Z AUTO 09006KT 1SM R29R/4500VP6000FT BR VV004 09/08 A3021 RMK AO2 T00890078
  • 100706Z AUTO 09006KT 1 3/4SM BR CLR 09/08 A3021 RMK AO2 T00890078
  • 100655Z AUTO 09004KT 4SM BR CLR 09/08 A3022 RMK AO2 SLP232 T00940078
  • 100555Z AUTO 32004KT 4SM BR CLR 10/08 A3021 RMK AO2 SLP228 T01000083 10161 20100 50008

TAF KSCK
Valide du 10 à 07h jusqu'au 11 à 06h UTC


100717Z 1007/1106 VRB03KT 1SM BR SCT250
TEMPO 1007/1010 1/2SM FG VV004
FM101000 10002KT 1/2SM FG SCT002
FM101300 00000KT 1/4SM FG OVC001
FM101800 16003KT 1 1/2SM BR OVC004
FM102100 14002KT 4SM HZ OVC015
FM110000 30004KT P6SM OVC250



MET'MAP, la Météo Aéronautique d'un coup d'oeil ! - Copyright ORBIFLY Décembre 2007 - Disclaimer

ORBIFLY MET'MAP TEAM :

Programmation & Développement : Alexandra Zaïnal
Sur une idée originale de : Baudouin d'Aumeries
Assistance à la programmation : Marc-Olivier Méhu
Soutien technique & logistique : Manuel Goepfert

Contact : metmap@orbifly.com




SOURCES & CREDITS :

   NOAA       Earth
Advisory